createdAt,value
2023-03-19T00:01:26.536Z,9.41
2023-03-19T00:04:11.470Z,9.43
2023-03-19T00:06:56.877Z,9.50
2023-03-19T00:09:42.410Z,9.41
2023-03-19T00:12:27.672Z,9.42
2023-03-19T00:15:12.769Z,9.38
2023-03-19T00:17:57.943Z,9.26
2023-03-19T00:20:43.717Z,9.35
2023-03-19T00:23:28.787Z,9.35
2023-03-19T00:26:14.224Z,9.37
2023-03-19T00:29:00.099Z,9.30
2023-03-19T00:31:45.656Z,9.25
2023-03-19T00:34:30.442Z,9.29
2023-03-19T00:37:15.782Z,9.20
2023-03-19T00:40:01.770Z,9.15
2023-03-19T00:42:47.070Z,9.12
2023-03-19T00:45:32.862Z,9.09
2023-03-19T00:48:18.717Z,9.06
2023-03-19T00:51:06.395Z,9.07
2023-03-19T00:53:52.094Z,9.31
2023-03-19T00:56:37.348Z,9.36
2023-03-19T00:59:22.594Z,9.04
2023-03-19T01:02:07.990Z,9.20
2023-03-19T01:04:53.466Z,9.15
2023-03-19T01:07:38.794Z,9.09
2023-03-19T01:10:24.939Z,9.09
2023-03-19T01:13:10.741Z,9.01
2023-03-19T01:15:55.796Z,9.03
2023-03-19T01:18:41.384Z,8.98
2023-03-19T01:21:26.800Z,8.90
2023-03-19T01:24:13.126Z,8.83
2023-03-19T01:26:58.327Z,8.69
2023-03-19T01:29:43.580Z,8.77
2023-03-19T01:32:28.477Z,8.71
2023-03-19T01:35:13.430Z,8.61
2023-03-19T01:37:58.888Z,8.65
2023-03-19T01:40:48.276Z,8.64
2023-03-19T01:43:33.737Z,8.57
2023-03-19T01:46:32.296Z,8.52
2023-03-19T01:49:19.685Z,8.64
2023-03-19T01:52:06.813Z,8.91
2023-03-19T01:54:54.276Z,8.78
2023-03-19T01:57:39.542Z,8.97
2023-03-19T02:00:24.420Z,8.81
2023-03-19T02:03:09.728Z,8.98
2023-03-19T02:05:56.348Z,8.74
2023-03-19T02:08:41.586Z,8.66
2023-03-19T02:11:27.211Z,8.72
2023-03-19T02:14:13.077Z,8.58
2023-03-19T02:16:59.088Z,8.61
2023-03-19T02:19:54.845Z,8.59
2023-03-19T02:22:50.111Z,8.51
2023-03-19T02:25:45.852Z,8.74
2023-03-19T02:28:33.159Z,8.60
2023-03-19T02:31:18.526Z,8.54
2023-03-19T02:34:27.540Z,8.49
2023-03-19T02:37:19.470Z,8.38
2023-03-19T02:40:10.137Z,8.48
2023-03-19T02:42:55.615Z,8.65
2023-03-19T02:45:41.103Z,8.70
2023-03-19T02:48:28.534Z,8.55
2023-03-19T02:51:13.663Z,8.51
2023-03-19T02:53:59.067Z,8.56
2023-03-19T02:56:44.376Z,8.57
2023-03-19T02:59:29.560Z,8.57
2023-03-19T03:02:14.737Z,8.61
2023-03-19T03:05:01.376Z,8.53
2023-03-19T03:07:46.668Z,8.46
2023-03-19T03:10:33.214Z,8.48
2023-03-19T03:13:18.460Z,8.42
2023-03-19T03:16:04.136Z,8.71
2023-03-19T03:18:49.188Z,8.79
2023-03-19T03:21:35.684Z,8.74
2023-03-19T03:24:20.690Z,8.63
2023-03-19T03:27:05.733Z,8.59
2023-03-19T03:29:50.845Z,8.58
2023-03-19T03:32:36.993Z,8.62
2023-03-19T03:35:22.796Z,8.59
2023-03-19T03:38:08.286Z,8.55
2023-03-19T03:40:53.872Z,8.68
2023-03-19T03:43:39.166Z,8.80
2023-03-19T03:46:24.271Z,8.70
2023-03-19T03:49:09.660Z,8.65
2023-03-19T03:51:54.814Z,8.56
2023-03-19T03:54:40.202Z,8.45
2023-03-19T03:57:26.182Z,8.31
2023-03-19T04:00:11.851Z,8.19
2023-03-19T04:02:56.912Z,8.52
2023-03-19T04:05:43.965Z,8.50
2023-03-19T04:08:28.998Z,8.46
2023-03-19T04:11:14.823Z,8.26
2023-03-19T04:14:00.103Z,8.16
2023-03-19T04:16:45.645Z,8.18
2023-03-19T04:19:32.051Z,8.09
2023-03-19T04:22:16.928Z,8.13
2023-03-19T04:25:01.841Z,8.04
2023-03-19T04:27:46.997Z,8.07
2023-03-19T04:30:34.743Z,7.92
2023-03-19T04:33:20.250Z,7.95
2023-03-19T04:36:06.032Z,7.92
2023-03-19T04:38:51.462Z,7.90
2023-03-19T04:41:36.809Z,7.94
2023-03-19T04:44:22.149Z,7.90
2023-03-19T04:47:07.384Z,7.85
2023-03-19T04:49:52.701Z,8.01
2023-03-19T04:52:38.495Z,7.92
2023-03-19T04:55:23.676Z,7.91
2023-03-19T04:58:08.626Z,7.97
2023-03-19T05:00:53.698Z,8.18
2023-03-19T05:03:38.631Z,7.90
2023-03-19T05:06:23.557Z,7.84
2023-03-19T05:09:08.560Z,7.93
2023-03-19T05:11:54.034Z,7.85
2023-03-19T05:14:38.887Z,7.76
2023-03-19T05:17:24.384Z,7.64
2023-03-19T05:20:10.566Z,7.76
2023-03-19T05:22:55.927Z,7.97
2023-03-19T05:25:41.649Z,7.73
2023-03-19T05:28:27.751Z,7.61
2023-03-19T05:31:12.840Z,7.46
2023-03-19T05:33:58.099Z,7.70
2023-03-19T05:36:42.974Z,7.53
2023-03-19T05:39:27.959Z,7.52
2023-03-19T05:42:13.000Z,7.73
2023-03-19T05:44:58.217Z,7.75
2023-03-19T05:47:43.864Z,7.67
2023-03-19T05:50:29.019Z,7.53
2023-03-19T05:53:14.075Z,7.65
2023-03-19T05:55:59.235Z,7.66
2023-03-19T05:58:44.570Z,7.68
2023-03-19T06:01:29.633Z,7.63
2023-03-19T06:04:14.824Z,7.72
2023-03-19T06:06:59.637Z,7.77
2023-03-19T06:09:44.769Z,7.99
2023-03-19T06:12:30.048Z,8.04
2023-03-19T06:15:14.915Z,8.07
2023-03-19T06:17:59.884Z,8.25
2023-03-19T06:20:47.183Z,8.51
2023-03-19T06:23:32.158Z,8.66
2023-03-19T06:26:16.948Z,8.57
2023-03-19T06:29:01.962Z,8.74
2023-03-19T06:31:47.410Z,8.62
2023-03-19T06:34:32.840Z,8.84
2023-03-19T06:37:18.243Z,8.74
2023-03-19T06:40:03.818Z,8.48
2023-03-19T06:42:49.163Z,8.66
2023-03-19T06:45:34.189Z,8.67
2023-03-19T06:48:19.434Z,8.57
2023-03-19T06:51:06.547Z,8.79
2023-03-19T06:53:51.523Z,9.07
2023-03-19T06:56:37.001Z,9.00
2023-03-19T06:59:22.294Z,9.00
2023-03-19T07:02:11.391Z,8.98
2023-03-19T07:04:56.516Z,9.13
2023-03-19T07:07:41.792Z,9.19
2023-03-19T07:10:27.313Z,9.14
2023-03-19T07:13:12.798Z,9.24
2023-03-19T07:15:57.845Z,9.37
2023-03-19T07:18:42.975Z,9.57
2023-03-19T07:21:28.150Z,9.60
2023-03-19T07:24:13.099Z,9.69
2023-03-19T07:26:58.294Z,9.86
2023-03-19T07:29:43.243Z,10.39
2023-03-19T07:32:28.275Z,10.38
2023-03-19T07:35:13.625Z,10.35
2023-03-19T07:37:58.525Z,10.28
2023-03-19T07:40:55.082Z,10.23
2023-03-19T07:43:46.633Z,10.23
2023-03-19T07:46:32.143Z,10.38
2023-03-19T07:49:16.954Z,10.47
2023-03-19T07:52:01.885Z,10.93
2023-03-19T07:54:46.897Z,11.03
2023-03-19T07:57:32.211Z,11.14
2023-03-19T08:00:18.089Z,11.16
2023-03-19T08:03:03.340Z,11.16
2023-03-19T08:05:49.385Z,11.53
2023-03-19T08:08:34.487Z,12.14
2023-03-19T08:11:19.450Z,12.18
2023-03-19T08:14:04.929Z,12.25
2023-03-19T08:16:50.405Z,12.24
2023-03-19T08:19:35.287Z,12.38
2023-03-19T08:22:23.073Z,12.46
2023-03-19T08:25:08.706Z,12.85
2023-03-19T08:27:53.788Z,12.53
2023-03-19T08:30:39.674Z,12.72
2023-03-19T08:33:24.987Z,12.60
2023-03-19T08:36:12.720Z,12.06
2023-03-19T08:38:58.017Z,12.29
2023-03-19T08:41:43.161Z,12.77
2023-03-19T08:44:28.149Z,12.37
2023-03-19T08:47:13.240Z,12.39
2023-03-19T08:49:58.123Z,12.49
2023-03-19T08:52:43.118Z,12.70
2023-03-19T08:55:28.946Z,13.11
2023-03-19T08:58:14.459Z,13.76
2023-03-19T09:01:07.217Z,14.22
2023-03-19T09:03:52.443Z,13.94
2023-03-19T09:06:38.352Z,14.06
2023-03-19T09:09:24.404Z,13.66
2023-03-19T09:12:11.653Z,13.45
2023-03-19T09:14:56.777Z,13.38
2023-03-19T09:17:41.853Z,12.89
2023-03-19T09:20:27.320Z,12.88
2023-03-19T09:23:12.961Z,12.90
2023-03-19T09:25:58.165Z,12.67
2023-03-19T09:28:43.594Z,12.65
2023-03-19T09:31:29.841Z,12.80
2023-03-19T09:34:15.349Z,12.75
2023-03-19T09:37:00.902Z,12.70
2023-03-19T09:39:46.185Z,12.61
2023-03-19T09:42:42.304Z,12.62
2023-03-19T09:45:28.439Z,12.68
2023-03-19T09:48:20.007Z,12.57
2023-03-19T09:51:08.952Z,12.83
2023-03-19T09:53:59.771Z,12.92
2023-03-19T09:56:45.137Z,13.13
2023-03-19T09:59:30.073Z,13.04
2023-03-19T10:02:43.551Z,13.47
2023-03-19T10:05:54.072Z,13.50
2023-03-19T10:08:51.586Z,13.07
2023-03-19T10:11:51.292Z,13.20
2023-03-19T10:15:10.086Z,13.45
2023-03-19T10:18:00.991Z,13.26
2023-03-19T10:20:55.817Z,13.18
2023-03-19T10:24:26.811Z,13.10
2023-03-19T10:27:22.556Z,13.26
2023-03-19T10:30:19.381Z,13.36
2023-03-19T10:33:21.867Z,13.48
2023-03-19T10:36:11.069Z,13.39
2023-03-19T10:38:56.671Z,13.59
2023-03-19T10:41:58.138Z,14.07
2023-03-19T10:44:53.933Z,14.38
2023-03-19T10:47:40.556Z,13.80
2023-03-19T10:50:28.762Z,13.73
2023-03-19T10:53:14.045Z,13.88
2023-03-19T10:56:04.691Z,14.03
2023-03-19T10:58:57.586Z,14.11
2023-03-19T11:01:43.016Z,14.10
2023-03-19T11:04:28.456Z,13.53
2023-03-19T11:07:19.450Z,13.57
2023-03-19T11:10:05.985Z,13.72
2023-03-19T11:12:55.443Z,14.20
2023-03-19T11:15:41.212Z,14.48
2023-03-19T11:18:31.594Z,14.82
2023-03-19T11:21:28.550Z,15.20
2023-03-19T11:24:16.924Z,15.34
2023-03-19T11:27:02.311Z,15.33
2023-03-19T11:29:47.315Z,15.27
2023-03-19T11:33:14.907Z,14.59
2023-03-19T11:36:22.810Z,14.68
2023-03-19T11:39:29.833Z,14.71
2023-03-19T11:42:40.676Z,14.63
2023-03-19T11:45:41.978Z,14.75
2023-03-19T11:49:05.431Z,14.50
2023-03-19T11:51:53.591Z,14.65
2023-03-19T11:55:08.081Z,14.79
2023-03-19T11:58:29.771Z,14.67
2023-03-19T12:01:44.385Z,14.72
2023-03-19T12:04:39.044Z,14.49
2023-03-19T12:07:27.402Z,14.07
2023-03-19T12:10:52.820Z,13.91
2023-03-19T12:14:13.549Z,14.02
2023-03-19T12:17:06.006Z,13.92
2023-03-19T12:20:12.215Z,14.17
2023-03-19T12:23:13.873Z,14.48
2023-03-19T12:26:06.409Z,14.16
2023-03-19T12:29:04.677Z,13.92
2023-03-19T12:31:59.317Z,14.13
2023-03-19T12:34:57.717Z,14.04
2023-03-19T12:37:59.728Z,14.13
2023-03-19T12:41:03.098Z,14.54
2023-03-19T12:44:13.182Z,14.70
2023-03-19T12:47:07.398Z,15.34
2023-03-19T12:50:06.962Z,15.87
2023-03-19T12:52:56.539Z,16.82
2023-03-19T12:55:50.276Z,17.40
2023-03-19T12:59:02.145Z,17.75
2023-03-19T13:01:51.730Z,18.08
2023-03-19T13:04:47.073Z,18.61
2023-03-19T13:07:44.884Z,18.32
2023-03-19T13:10:31.106Z,17.96
2023-03-19T13:13:36.380Z,18.70
2023-03-19T13:16:57.606Z,18.91
2023-03-19T13:19:49.801Z,18.92
2023-03-19T13:22:38.642Z,18.95
2023-03-19T13:25:31.485Z,18.68
2023-03-19T13:28:27.242Z,17.96
2023-03-19T13:31:21.942Z,17.10
2023-03-19T13:34:27.193Z,16.12
2023-03-19T13:37:19.284Z,16.24
2023-03-19T13:40:05.568Z,16.22
2023-03-19T13:42:56.720Z,16.07
2023-03-19T13:45:42.720Z,16.57
2023-03-19T13:48:27.688Z,16.78
2023-03-19T13:51:17.818Z,16.87
2023-03-19T13:54:12.124Z,16.06
2023-03-19T13:57:00.545Z,15.80
2023-03-19T13:59:48.479Z,15.85
2023-03-19T14:02:33.535Z,15.52
2023-03-19T14:05:20.206Z,15.87
2023-03-19T14:08:20.240Z,16.16
2023-03-19T14:11:05.742Z,15.99
2023-03-19T14:13:52.914Z,16.16
2023-03-19T14:16:43.695Z,16.17
2023-03-19T14:19:28.905Z,16.22
2023-03-19T14:22:17.082Z,16.32
2023-03-19T14:25:12.937Z,16.38
2023-03-19T14:28:09.117Z,17.44
2023-03-19T14:30:55.814Z,18.07
2023-03-19T14:33:50.658Z,17.94
2023-03-19T14:36:40.830Z,17.97
2023-03-19T14:39:29.004Z,17.74
2023-03-19T14:42:24.347Z,16.94
2023-03-19T14:45:13.898Z,16.05
2023-03-19T14:48:02.489Z,15.58
2023-03-19T14:51:11.873Z,15.67
2023-03-19T14:54:23.363Z,15.61
2023-03-19T14:57:26.253Z,15.39
2023-03-19T15:00:17.711Z,15.24
2023-03-19T15:03:02.997Z,15.29
2023-03-19T15:05:50.269Z,15.28
2023-03-19T15:08:38.273Z,15.27
2023-03-19T15:11:29.035Z,15.32
2023-03-19T15:15:08.869Z,15.22
2023-03-19T15:18:07.405Z,15.01
2023-03-19T15:20:55.219Z,14.64
2023-03-19T15:23:41.658Z,14.50
2023-03-19T15:26:37.318Z,14.23
2023-03-19T15:29:33.437Z,14.03
2023-03-19T15:32:52.089Z,14.31
2023-03-19T15:35:40.594Z,14.15
2023-03-19T15:38:31.132Z,14.14
2023-03-19T15:41:18.118Z,13.85
2023-03-19T15:44:09.755Z,13.84
2023-03-19T15:46:57.795Z,13.82
2023-03-19T15:49:51.188Z,13.90
2023-03-19T15:52:41.385Z,13.78
2023-03-19T15:55:27.006Z,13.84
2023-03-19T15:58:16.722Z,13.77
2023-03-19T16:01:01.945Z,13.74
2023-03-19T16:04:08.681Z,13.96
2023-03-19T16:06:54.012Z,14.01
2023-03-19T16:09:39.332Z,13.95
2023-03-19T16:12:48.930Z,14.08
2023-03-19T16:15:43.447Z,14.25
2023-03-19T16:18:30.175Z,14.35
2023-03-19T16:21:23.354Z,14.34
2023-03-19T16:24:08.562Z,14.36
2023-03-19T16:26:54.288Z,14.41
2023-03-19T16:29:44.912Z,14.52
2023-03-19T16:32:32.013Z,14.40
2023-03-19T16:35:17.999Z,14.40
2023-03-19T16:38:26.493Z,14.34
2023-03-19T16:41:22.891Z,14.23
2023-03-19T16:44:15.804Z,14.19
2023-03-19T16:47:01.097Z,14.22
2023-03-19T16:49:46.950Z,14.22
2023-03-19T16:52:32.603Z,14.17
2023-03-19T16:55:27.046Z,14.21
2023-03-19T16:58:18.536Z,14.12
2023-03-19T17:01:12.146Z,14.16
2023-03-19T17:03:57.259Z,14.04
2023-03-19T17:06:43.588Z,14.06
2023-03-19T17:09:28.789Z,13.99
2023-03-19T17:12:16.143Z,13.97
2023-03-19T17:15:01.589Z,14.09
2023-03-19T17:17:47.145Z,14.19
2023-03-19T17:20:36.417Z,14.14
2023-03-19T17:23:21.480Z,13.90
2023-03-19T17:26:16.613Z,13.68
2023-03-19T17:29:01.706Z,13.77
2023-03-19T17:31:47.520Z,13.73
2023-03-19T17:34:32.611Z,13.48
2023-03-19T17:37:18.089Z,13.32
2023-03-19T17:40:14.998Z,13.20
2023-03-19T17:43:00.313Z,13.08
2023-03-19T17:45:45.854Z,13.08
2023-03-19T17:48:31.201Z,13.12
2023-03-19T17:51:18.941Z,13.26
2023-03-19T17:54:10.383Z,13.20
2023-03-19T17:56:55.986Z,13.15
2023-03-19T17:59:41.396Z,13.18
2023-03-19T18:02:30.448Z,13.23
2023-03-19T18:05:23.931Z,13.26
2023-03-19T18:08:17.672Z,13.29
2023-03-19T18:11:02.824Z,13.16
2023-03-19T18:13:48.142Z,13.15
2023-03-19T18:16:33.601Z,12.98
2023-03-19T18:19:37.575Z,12.87
2023-03-19T18:22:22.548Z,12.64
2023-03-19T18:25:19.736Z,12.48
2023-03-19T18:28:05.504Z,12.44
2023-03-19T18:30:50.948Z,12.59
2023-03-19T18:33:36.261Z,12.50
2023-03-19T18:36:24.750Z,12.49
2023-03-19T18:39:14.646Z,12.42
2023-03-19T18:41:59.786Z,12.32
2023-03-19T18:44:45.016Z,12.60
2023-03-19T18:47:30.474Z,12.50
2023-03-19T18:50:21.998Z,12.36
2023-03-19T18:53:10.957Z,12.31
2023-03-19T18:55:56.436Z,12.35
2023-03-19T18:58:41.677Z,12.33
2023-03-19T19:01:27.222Z,12.37
2023-03-19T19:04:16.006Z,12.37
2023-03-19T19:07:00.914Z,12.38
2023-03-19T19:09:45.831Z,12.54
2023-03-19T19:12:31.349Z,12.48
2023-03-19T19:15:36.372Z,12.49
2023-03-19T19:18:27.205Z,12.54
2023-03-19T19:21:12.650Z,12.52
2023-03-19T19:23:57.780Z,12.46
2023-03-19T19:26:45.857Z,12.40
2023-03-19T19:29:30.967Z,12.32
2023-03-19T19:32:23.305Z,12.16
2023-03-19T19:35:22.943Z,12.08
2023-03-19T19:38:14.865Z,12.07
2023-03-19T19:41:00.572Z,12.13
2023-03-19T19:43:46.592Z,12.28
2023-03-19T19:46:32.173Z,12.33
2023-03-19T19:49:19.561Z,12.17
2023-03-19T19:52:10.687Z,12.10
2023-03-19T19:54:56.278Z,12.09
2023-03-19T19:57:43.271Z,12.19
2023-03-19T20:00:30.342Z,12.20
2023-03-19T20:03:24.387Z,12.15
2023-03-19T20:06:10.409Z,12.16
2023-03-19T20:08:55.405Z,12.14
2023-03-19T20:11:40.439Z,12.13
2023-03-19T20:14:25.894Z,11.88
2023-03-19T20:17:15.872Z,11.58
2023-03-19T20:20:01.407Z,11.51
2023-03-19T20:22:46.865Z,11.39
2023-03-19T20:25:32.300Z,11.24
2023-03-19T20:28:30.181Z,11.18
2023-03-19T20:31:27.669Z,11.38
2023-03-19T20:34:22.496Z,11.52
2023-03-19T20:37:10.901Z,11.39
2023-03-19T20:39:56.524Z,11.32
2023-03-19T20:42:45.944Z,11.40
2023-03-19T20:45:35.137Z,11.40
2023-03-19T20:48:20.753Z,11.41
2023-03-19T20:51:06.271Z,11.55
2023-03-19T20:53:52.189Z,11.65
2023-03-19T20:56:38.493Z,11.52
2023-03-19T20:59:25.703Z,11.70
2023-03-19T21:02:16.298Z,11.83
2023-03-19T21:05:01.489Z,11.87
2023-03-19T21:07:49.024Z,11.96
2023-03-19T21:10:39.447Z,11.97
2023-03-19T21:13:24.745Z,11.98
2023-03-19T21:16:16.683Z,11.94
2023-03-19T21:19:02.115Z,11.92
2023-03-19T21:21:47.506Z,11.82
2023-03-19T21:24:32.961Z,11.70
2023-03-19T21:27:25.604Z,11.69
2023-03-19T21:30:16.344Z,11.64
2023-03-19T21:33:01.904Z,11.56
2023-03-19T21:35:47.169Z,11.53
2023-03-19T21:38:32.574Z,11.32
2023-03-19T21:41:22.393Z,11.33
2023-03-19T21:44:13.043Z,11.12
2023-03-19T21:46:58.427Z,11.09
2023-03-19T21:49:43.917Z,10.94
2023-03-19T21:52:29.273Z,10.89
2023-03-19T21:55:16.270Z,10.79
2023-03-19T21:58:01.592Z,10.77
2023-03-19T22:00:46.772Z,10.69
2023-03-19T22:03:32.113Z,10.67
2023-03-19T22:06:17.422Z,10.49
2023-03-19T22:09:03.951Z,10.42
2023-03-19T22:11:49.257Z,10.28
2023-03-19T22:14:34.759Z,10.22
2023-03-19T22:17:23.878Z,10.13
2023-03-19T22:20:18.375Z,9.91
2023-03-19T22:23:03.924Z,9.73
2023-03-19T22:25:51.132Z,9.83
2023-03-19T22:28:36.618Z,9.99
2023-03-19T22:31:22.158Z,9.88
2023-03-19T22:34:14.686Z,9.83
2023-03-19T22:36:59.855Z,9.77
2023-03-19T22:39:45.577Z,9.58
2023-03-19T22:42:30.922Z,9.43
2023-03-19T22:45:22.549Z,9.34
2023-03-19T22:48:13.696Z,9.43
2023-03-19T22:50:58.858Z,9.31
2023-03-19T22:53:44.678Z,9.25
2023-03-19T22:56:29.769Z,8.98
2023-03-19T22:59:15.184Z,8.47
2023-03-19T23:02:00.440Z,8.46
2023-03-19T23:04:45.862Z,8.44
2023-03-19T23:07:31.248Z,8.22
2023-03-19T23:10:20.617Z,8.13
2023-03-19T23:13:06.122Z,8.13
2023-03-19T23:15:57.167Z,8.01
2023-03-19T23:18:42.576Z,7.93
2023-03-19T23:21:27.635Z,7.99
2023-03-19T23:24:12.911Z,7.97
2023-03-19T23:27:00.613Z,8.05
2023-03-19T23:29:45.740Z,8.12
2023-03-19T23:32:31.073Z,8.02
2023-03-19T23:35:18.671Z,7.95
2023-03-19T23:38:04.166Z,7.91
2023-03-19T23:40:51.561Z,7.90
2023-03-19T23:43:36.805Z,7.96
2023-03-19T23:46:22.215Z,8.10
2023-03-19T23:49:15.065Z,8.20
2023-03-19T23:52:00.646Z,8.07
2023-03-19T23:54:46.093Z,8.22
2023-03-19T23:57:31.452Z,8.37
